createdAt,value
2022-08-19T00:00:12.616Z,743.01
2022-08-19T00:01:12.620Z,742.99
2022-08-19T00:02:12.619Z,742.88
2022-08-19T00:03:12.592Z,742.85
2022-08-19T00:04:12.583Z,742.77
2022-08-19T00:05:13.722Z,742.81
2022-08-19T00:06:12.555Z,742.96
2022-08-19T00:07:12.572Z,742.81
2022-08-19T00:08:17.266Z,742.83
2022-08-19T00:09:12.527Z,742.80
2022-08-19T00:10:12.507Z,742.78
2022-08-19T00:11:18.547Z,742.63
2022-08-19T00:12:12.521Z,742.55
2022-08-19T00:13:12.481Z,742.53
2022-08-19T00:14:12.463Z,742.48
2022-08-19T00:15:12.463Z,742.67
2022-08-19T00:16:12.447Z,742.82
2022-08-19T00:17:12.454Z,743.13
2022-08-19T00:18:12.426Z,743.00
2022-08-19T00:19:12.414Z,743.10
2022-08-19T00:20:12.408Z,743.16
2022-08-19T00:21:12.380Z,743.37
2022-08-19T00:22:12.402Z,743.57
2022-08-19T00:23:12.376Z,743.57
2022-08-19T00:24:12.350Z,743.56
2022-08-19T00:25:12.360Z,743.71
2022-08-19T00:26:12.341Z,743.83
2022-08-19T00:27:25.316Z,743.87
2022-08-19T00:28:12.313Z,743.98
2022-08-19T00:29:12.313Z,744.05
2022-08-19T00:30:12.282Z,744.09
2022-08-19T00:31:12.276Z,743.97
2022-08-19T00:32:12.290Z,744.03
2022-08-19T00:33:12.270Z,743.96
2022-08-19T00:34:12.246Z,744.08
2022-08-19T00:35:12.232Z,744.28
2022-08-19T00:36:12.227Z,744.28
2022-08-19T00:37:12.222Z,744.32
2022-08-19T00:38:12.225Z,744.52
2022-08-19T00:39:12.187Z,744.81
2022-08-19T00:40:12.212Z,744.69
2022-08-19T00:41:12.166Z,744.69
2022-08-19T00:42:12.146Z,744.95
2022-08-19T00:43:12.165Z,745.11
2022-08-19T00:44:12.134Z,745.33
2022-08-19T00:45:12.127Z,745.45
2022-08-19T00:46:12.119Z,745.54
2022-08-19T00:47:14.139Z,745.79
2022-08-19T00:48:15.010Z,745.92
2022-08-19T00:49:12.072Z,745.94
2022-08-19T00:50:12.061Z,745.74
2022-08-19T00:51:12.057Z,745.80
2022-08-19T00:52:12.039Z,745.88
2022-08-19T00:53:12.030Z,745.97
2022-08-19T00:54:12.036Z,746.22
2022-08-19T00:55:12.007Z,746.48
2022-08-19T00:56:11.992Z,746.75
2022-08-19T00:57:11.991Z,746.97
2022-08-19T00:58:11.976Z,747.08
2022-08-19T00:59:12.003Z,747.20
2022-08-19T01:00:11.951Z,747.53
2022-08-19T01:01:12.095Z,747.72
2022-08-19T01:02:11.925Z,748.00
2022-08-19T01:03:11.920Z,748.27
2022-08-19T01:04:11.937Z,748.50
2022-08-19T01:05:11.889Z,748.81
2022-08-19T01:06:11.916Z,749.08
2022-08-19T01:07:15.063Z,749.32
2022-08-19T01:08:11.862Z,749.40
2022-08-19T01:10:54.313Z,750.19
2022-08-19T01:11:54.229Z,749.90
2022-08-19T01:12:54.304Z,750.14
2022-08-19T01:13:54.189Z,750.29
2022-08-19T01:14:54.179Z,750.32
2022-08-19T01:15:54.154Z,750.33
2022-08-19T01:16:54.171Z,750.31
2022-08-19T01:17:54.146Z,750.33
2022-08-19T01:18:54.128Z,750.44
2022-08-19T01:19:54.116Z,750.51
2022-08-19T01:20:54.133Z,750.59
2022-08-19T01:21:54.110Z,750.92
2022-08-19T01:22:54.324Z,750.97
2022-08-19T01:23:54.077Z,750.81
2022-08-19T01:24:54.063Z,750.60
2022-08-19T01:25:54.054Z,750.69
2022-08-19T01:26:54.067Z,750.53
2022-08-19T01:27:54.055Z,750.35
2022-08-19T01:28:54.055Z,750.37
2022-08-19T01:29:54.009Z,750.33
2022-08-19T01:30:54.026Z,750.33
2022-08-19T01:31:54.002Z,750.47
2022-08-19T01:32:54.253Z,750.38
2022-08-19T01:33:53.960Z,750.38
2022-08-19T01:34:53.965Z,750.39
2022-08-19T01:35:53.941Z,750.48
2022-08-19T01:36:53.940Z,750.89
2022-08-19T01:37:53.921Z,751.35
2022-08-19T01:38:53.931Z,751.65
2022-08-19T01:39:53.944Z,751.99
2022-08-19T01:40:53.873Z,752.04
2022-08-19T01:41:53.884Z,752.32
2022-08-19T01:42:54.130Z,752.80
2022-08-19T01:44:10.410Z,753.29
2022-08-19T01:44:53.837Z,753.69
2022-08-19T01:45:53.823Z,753.93
2022-08-19T01:46:53.811Z,753.99
2022-08-19T01:48:01.780Z,753.33
2022-08-19T01:48:53.818Z,753.17
2022-08-19T01:49:53.782Z,753.41
2022-08-19T01:50:53.767Z,753.24
2022-08-19T01:51:53.766Z,753.09
2022-08-19T01:53:05.965Z,753.01
2022-08-19T01:53:53.758Z,753.05
2022-08-19T01:54:53.742Z,753.31
2022-08-19T01:55:53.717Z,753.54
2022-08-19T01:56:53.699Z,753.79
2022-08-19T01:57:53.690Z,753.95
2022-08-19T01:58:53.714Z,754.30
2022-08-19T01:59:53.668Z,754.60
2022-08-19T02:00:53.659Z,754.67
2022-08-19T02:01:53.734Z,754.84
2022-08-19T02:02:53.859Z,755.12
2022-08-19T02:03:53.643Z,755.30
2022-08-19T02:04:53.608Z,755.54
2022-08-19T02:05:53.605Z,755.81
2022-08-19T02:06:53.592Z,755.86
2022-08-19T02:07:53.572Z,756.10
2022-08-19T02:08:53.591Z,756.31
2022-08-19T02:09:53.572Z,756.46
2022-08-19T02:10:53.572Z,756.78
2022-08-19T02:11:53.545Z,756.99
2022-08-19T02:12:53.832Z,756.99
2022-08-19T02:13:53.507Z,757.14
2022-08-19T02:14:53.508Z,757.21
2022-08-19T02:15:53.527Z,757.46
2022-08-19T02:16:53.488Z,757.54
2022-08-19T02:17:53.468Z,757.81
2022-08-19T02:18:53.465Z,757.95
2022-08-19T02:19:53.461Z,758.26
2022-08-19T02:20:53.434Z,758.37
2022-08-19T02:21:53.475Z,758.68
2022-08-19T02:22:53.531Z,758.81
2022-08-19T02:23:53.414Z,759.01
2022-08-19T02:24:53.387Z,759.14
2022-08-19T02:25:53.382Z,759.11
2022-08-19T02:26:53.389Z,759.05
2022-08-19T02:27:53.354Z,759.24
2022-08-19T02:28:53.380Z,759.41
2022-08-19T02:29:53.343Z,759.42
2022-08-19T02:30:53.319Z,759.65
2022-08-19T02:31:53.326Z,759.54
2022-08-19T02:32:53.298Z,759.58
2022-08-19T02:33:53.276Z,759.63
2022-08-19T02:34:53.267Z,759.67
2022-08-19T02:35:53.267Z,759.81
2022-08-19T02:36:53.302Z,760.09
2022-08-19T02:37:53.235Z,760.40
2022-08-19T02:38:54.697Z,760.77
2022-08-19T02:39:53.283Z,760.99
2022-08-19T02:40:53.201Z,760.96
2022-08-19T02:41:53.215Z,761.11
2022-08-19T02:42:53.384Z,761.27
2022-08-19T02:44:28.808Z,761.35
2022-08-19T02:44:53.166Z,761.51
2022-08-19T02:45:53.154Z,761.69
2022-08-19T02:46:53.162Z,761.42
2022-08-19T02:47:53.126Z,761.33
2022-08-19T02:48:53.110Z,761.39
2022-08-19T02:49:53.101Z,761.55
2022-08-19T02:50:53.613Z,761.60
2022-08-19T02:51:53.110Z,761.43
2022-08-19T02:52:53.289Z,761.35
2022-08-19T02:53:53.060Z,761.32
2022-08-19T02:54:53.050Z,761.13
2022-08-19T02:55:53.033Z,761.27
2022-08-19T02:56:53.027Z,761.38
2022-08-19T02:57:53.017Z,761.37
2022-08-19T02:58:53.002Z,761.41
2022-08-19T02:59:52.988Z,761.61
2022-08-19T03:00:53.076Z,761.63
2022-08-19T03:01:52.961Z,761.71
2022-08-19T03:02:53.119Z,761.82
2022-08-19T03:03:52.945Z,761.87
2022-08-19T03:04:52.928Z,761.93
2022-08-19T03:05:56.919Z,761.90
2022-08-19T03:06:52.911Z,761.92
2022-08-19T03:07:52.907Z,762.04
2022-08-19T03:08:52.881Z,762.11
2022-08-19T03:09:52.876Z,762.28
2022-08-19T03:12:03.174Z,762.82
2022-08-19T03:13:04.657Z,762.49
2022-08-19T03:14:04.027Z,762.70
2022-08-19T03:15:04.038Z,762.89
2022-08-19T03:16:04.005Z,763.24
2022-08-19T03:17:03.982Z,763.62
2022-08-19T03:18:03.977Z,763.52
2022-08-19T03:19:03.965Z,763.68
2022-08-19T03:20:03.978Z,763.52
2022-08-19T03:21:03.944Z,763.18
2022-08-19T03:22:03.946Z,763.22
2022-08-19T03:23:03.941Z,763.09
2022-08-19T03:24:03.915Z,763.20
2022-08-19T03:25:03.919Z,763.06
2022-08-19T03:26:16.620Z,763.06
2022-08-19T03:27:03.888Z,763.50
2022-08-19T03:28:03.872Z,763.55
2022-08-19T03:29:04.962Z,763.45
2022-08-19T03:30:03.883Z,763.31
2022-08-19T03:31:03.835Z,763.10
2022-08-19T03:32:04.598Z,763.16
2022-08-19T03:33:03.806Z,763.20
2022-08-19T03:34:03.800Z,763.45
2022-08-19T03:35:03.810Z,763.52
2022-08-19T03:36:03.777Z,763.97
2022-08-19T03:37:03.756Z,764.29
2022-08-19T03:38:03.746Z,764.64
2022-08-19T03:39:03.735Z,765.07
2022-08-19T03:40:03.785Z,765.58
2022-08-19T03:41:03.719Z,766.06
2022-08-19T03:42:32.154Z,765.09
2022-08-19T03:43:03.962Z,764.58
2022-08-19T03:44:03.685Z,763.92
2022-08-19T03:45:03.680Z,763.95
2022-08-19T03:46:03.661Z,763.80
2022-08-19T03:47:03.669Z,763.80
2022-08-19T03:48:03.645Z,763.63
2022-08-19T03:49:03.623Z,763.64
2022-08-19T03:50:03.639Z,763.75
2022-08-19T03:51:03.611Z,763.57
2022-08-19T03:52:04.318Z,763.58
2022-08-19T03:53:03.599Z,763.74
2022-08-19T03:54:03.576Z,763.72
2022-08-19T03:55:04.377Z,763.75
2022-08-19T03:56:04.495Z,763.73
2022-08-19T03:57:03.557Z,763.77
2022-08-19T03:58:03.587Z,763.88
2022-08-19T03:59:03.519Z,763.91
2022-08-19T04:00:12.710Z,763.92
2022-08-19T04:01:03.578Z,764.00
2022-08-19T04:02:03.492Z,764.16
2022-08-19T04:03:03.599Z,764.73
2022-08-19T04:04:03.509Z,764.98
2022-08-19T04:05:03.463Z,764.88
2022-08-19T04:06:03.440Z,764.94
2022-08-19T04:07:03.455Z,765.16
2022-08-19T04:08:03.445Z,765.17
2022-08-19T04:09:03.417Z,765.11
2022-08-19T04:10:03.387Z,765.19
2022-08-19T04:11:03.390Z,765.37
2022-08-19T04:12:03.397Z,765.43
2022-08-19T04:13:03.376Z,765.56
2022-08-19T04:14:04.371Z,765.60
2022-08-19T04:15:04.437Z,765.61
2022-08-19T04:16:03.332Z,765.73
2022-08-19T04:17:03.320Z,765.83
2022-08-19T04:18:03.329Z,766.04
2022-08-19T04:19:03.293Z,766.06
2022-08-19T04:20:07.122Z,766.10
2022-08-19T04:21:03.279Z,765.95
2022-08-19T04:22:03.265Z,766.09
2022-08-19T04:23:03.273Z,766.16
2022-08-19T04:24:03.975Z,766.29
2022-08-19T04:25:06.857Z,766.37
2022-08-19T04:26:03.246Z,766.36
2022-08-19T04:27:03.199Z,766.30
2022-08-19T04:28:03.187Z,766.43
2022-08-19T04:29:03.180Z,766.67
2022-08-19T04:30:03.193Z,767.01
2022-08-19T04:31:03.183Z,767.23
2022-08-19T04:32:09.155Z,767.24
2022-08-19T04:33:03.139Z,767.26
2022-08-19T04:34:03.123Z,767.28
2022-08-19T04:35:17.868Z,767.50
2022-08-19T04:36:03.123Z,767.52
2022-08-19T04:37:03.102Z,767.65
2022-08-19T04:38:03.088Z,767.71
2022-08-19T04:39:03.078Z,767.97
2022-08-19T04:40:03.168Z,768.20
2022-08-19T04:41:03.071Z,768.16
2022-08-19T04:42:03.042Z,767.86
2022-08-19T04:43:03.034Z,767.87
2022-08-19T04:44:04.503Z,767.84
2022-08-19T04:45:02.998Z,767.72
2022-08-19T04:46:02.990Z,767.61
2022-08-19T04:47:02.991Z,767.81
2022-08-19T04:48:19.681Z,767.97
2022-08-19T04:49:09.098Z,767.94
2022-08-19T04:50:02.947Z,767.94
2022-08-19T04:51:02.938Z,768.02
2022-08-19T04:52:02.942Z,768.09
2022-08-19T04:53:02.907Z,768.29
2022-08-19T04:54:02.902Z,768.71
2022-08-19T04:55:02.884Z,768.89
2022-08-19T04:56:02.874Z,768.39
2022-08-19T04:57:02.894Z,767.85
2022-08-19T04:58:02.854Z,767.62
2022-08-19T04:59:02.845Z,767.47
2022-08-19T05:00:02.835Z,767.52
2022-08-19T05:01:02.877Z,767.55
2022-08-19T05:02:02.845Z,767.64
2022-08-19T05:03:02.830Z,767.62
2022-08-19T05:04:02.789Z,767.55
2022-08-19T05:05:02.778Z,767.39
2022-08-19T05:06:02.767Z,767.38
2022-08-19T05:07:02.766Z,767.23
2022-08-19T05:08:02.763Z,766.97
2022-08-19T05:09:02.748Z,766.89
2022-08-19T05:10:02.739Z,767.03
2022-08-19T05:11:02.714Z,767.07
2022-08-19T22:46:17.082Z,715.97
2022-08-19T22:47:15.713Z,715.49
2022-08-19T22:48:15.708Z,715.48
2022-08-19T22:49:15.688Z,715.45
2022-08-19T22:50:15.684Z,715.47
2022-08-19T22:51:15.716Z,715.53
2022-08-19T22:52:15.659Z,715.55
2022-08-19T22:53:15.653Z,715.59
2022-08-19T22:54:15.639Z,715.59
2022-08-19T22:55:15.627Z,715.62
2022-08-19T22:56:15.755Z,715.62
2022-08-19T22:57:15.609Z,715.63
2022-08-19T22:58:15.594Z,715.70
2022-08-19T22:59:15.586Z,715.75
2022-08-19T23:00:15.570Z,715.75
2022-08-19T23:01:29.625Z,715.70
2022-08-19T23:02:15.555Z,715.76
2022-08-19T23:03:15.548Z,715.73
2022-08-19T23:04:15.525Z,715.78
2022-08-19T23:05:15.540Z,715.85
2022-08-19T23:06:15.520Z,715.87
2022-08-19T23:07:15.516Z,715.93
2022-08-19T23:08:15.481Z,715.90
2022-08-19T23:09:16.779Z,715.85
2022-08-19T23:10:15.509Z,715.91
2022-08-19T23:11:15.476Z,715.74
2022-08-19T23:12:15.440Z,715.85
2022-08-19T23:13:15.433Z,715.92
2022-08-19T23:14:15.435Z,716.13
2022-08-19T23:15:15.441Z,716.32
2022-08-19T23:16:15.400Z,716.56
2022-08-19T23:17:15.390Z,716.43
2022-08-19T23:18:15.401Z,716.44
2022-08-19T23:19:15.366Z,716.52
2022-08-19T23:20:15.384Z,716.65
2022-08-19T23:21:15.347Z,716.59
2022-08-19T23:22:15.330Z,716.64
2022-08-19T23:23:15.319Z,716.69
2022-08-19T23:24:15.313Z,716.80
2022-08-19T23:25:15.339Z,716.79
2022-08-19T23:26:15.293Z,716.89
2022-08-19T23:27:15.281Z,716.91
2022-08-19T23:28:15.273Z,716.98
2022-08-19T23:29:15.260Z,717.25
2022-08-19T23:30:15.271Z,717.40
2022-08-19T23:31:15.235Z,717.49
2022-08-19T23:32:16.137Z,717.54
2022-08-19T23:33:15.208Z,717.61
2022-08-19T23:34:15.201Z,717.76
2022-08-19T23:35:15.215Z,717.98
2022-08-19T23:36:15.178Z,718.14
2022-08-19T23:37:15.189Z,718.24
2022-08-19T23:38:15.160Z,718.54
2022-08-19T23:39:15.148Z,718.64
2022-08-19T23:40:15.190Z,718.76
2022-08-19T23:41:15.137Z,718.84
2022-08-19T23:42:15.117Z,719.00
2022-08-19T23:43:20.846Z,719.01
2022-08-19T23:44:15.135Z,719.03
2022-08-19T23:45:15.116Z,719.11
2022-08-19T23:46:27.324Z,719.19
2022-08-19T23:47:15.082Z,719.40
2022-08-19T23:48:15.077Z,719.48
2022-08-19T23:49:15.037Z,719.50
2022-08-19T23:50:15.028Z,719.79
2022-08-19T23:51:15.014Z,719.91
2022-08-19T23:52:15.007Z,719.92
2022-08-19T23:53:14.998Z,720.13
2022-08-19T23:54:14.980Z,720.28
2022-08-19T23:55:14.973Z,720.39
2022-08-19T23:56:14.990Z,720.56
2022-08-19T23:57:14.951Z,720.60
2022-08-19T23:58:14.940Z,720.61
2022-08-19T23:59:14.922Z,720.62
